createdAt,value
2022-12-25T00:01:32.281Z,9.90
2022-12-25T00:04:06.100Z,9.90
2022-12-25T00:06:33.387Z,9.90
2022-12-25T00:09:00.541Z,9.90
2022-12-25T00:11:27.710Z,9.90
2022-12-25T00:13:54.873Z,9.80
2022-12-25T00:16:25.300Z,9.80
2022-12-25T00:18:53.928Z,9.80
2022-12-25T00:21:22.231Z,9.80
2022-12-25T00:23:58.519Z,9.90
2022-12-25T00:26:27.698Z,9.90
2022-12-25T00:28:56.781Z,9.90
2022-12-25T00:31:25.811Z,9.90
2022-12-25T00:33:53.728Z,9.90
2022-12-25T00:36:22.895Z,9.90
2022-12-25T00:38:50.096Z,9.80
2022-12-25T00:41:43.347Z,9.80
2022-12-25T00:44:13.829Z,9.80
2022-12-25T00:46:42.265Z,9.80
2022-12-25T00:49:11.536Z,9.70
2022-12-25T00:51:38.806Z,9.70
2022-12-25T00:54:06.073Z,9.70
2022-12-25T00:56:35.979Z,9.70
2022-12-25T00:59:03.537Z,9.70
2022-12-25T01:01:31.197Z,9.70
2022-12-25T01:03:58.841Z,9.70
2022-12-25T01:06:26.745Z,9.80
2022-12-25T01:09:12.674Z,9.80
2022-12-25T01:11:43.293Z,9.80
2022-12-25T01:14:11.047Z,9.80
2022-12-25T01:16:38.435Z,9.80
2022-12-25T01:19:05.957Z,9.80
2022-12-25T01:21:33.409Z,9.80
2022-12-25T01:24:00.681Z,9.70
2022-12-25T01:26:29.240Z,9.70
2022-12-25T01:28:56.488Z,9.70
2022-12-25T01:31:25.128Z,9.60
2022-12-25T01:33:52.813Z,9.60
2022-12-25T01:36:25.570Z,9.60
2022-12-25T01:38:54.257Z,9.60
2022-12-25T01:41:23.944Z,9.50
2022-12-25T01:44:28.073Z,9.50
2022-12-25T01:46:55.231Z,9.50
2022-12-25T01:49:25.809Z,9.50
2022-12-25T01:52:02.642Z,9.50
2022-12-25T01:54:36.729Z,9.50
2022-12-25T01:57:11.163Z,9.40
2022-12-25T01:59:39.329Z,9.40
2022-12-25T02:02:06.507Z,9.40
2022-12-25T02:04:43.324Z,9.30
2022-12-25T02:07:19.366Z,9.30
2022-12-25T02:09:47.304Z,9.30
2022-12-25T02:12:28.040Z,9.20
2022-12-25T02:15:22.177Z,9.20
2022-12-25T02:18:33.970Z,9.20
2022-12-25T02:21:48.080Z,9.10
2022-12-25T02:24:58.356Z,9.10
2022-12-25T02:27:54.106Z,9.10
2022-12-25T02:30:22.201Z,9.10
2022-12-25T02:33:20.128Z,9.10
2022-12-25T02:35:53.691Z,9.10
2022-12-25T02:39:05.227Z,9.00
2022-12-25T02:41:37.187Z,9.00
2022-12-25T02:44:30.061Z,9.00
2022-12-25T02:47:15.842Z,8.90
2022-12-25T02:50:02.860Z,8.90
2022-12-25T02:52:49.907Z,8.90
2022-12-25T02:55:45.699Z,8.90
2022-12-25T02:58:38.153Z,8.90
2022-12-25T03:01:32.414Z,8.90
2022-12-25T03:04:23.764Z,8.90
2022-12-25T03:07:21.453Z,8.90
2022-12-25T03:10:17.267Z,8.90
2022-12-25T03:12:58.334Z,8.80
2022-12-25T03:15:44.532Z,8.80
2022-12-25T03:18:17.283Z,8.80
2022-12-25T03:21:05.651Z,8.70
2022-12-25T03:23:54.273Z,8.70
2022-12-25T03:26:40.181Z,8.70
2022-12-25T03:29:07.370Z,8.70
2022-12-25T03:32:00.422Z,8.60
2022-12-25T03:34:45.905Z,8.60
2022-12-25T03:38:12.198Z,8.70
2022-12-25T03:41:56.157Z,8.60
2022-12-25T03:44:51.854Z,8.60
2022-12-25T03:47:49.353Z,8.60
2022-12-25T03:50:51.056Z,8.60
2022-12-25T03:53:56.776Z,8.60
2022-12-25T03:56:44.405Z,8.60
2022-12-25T03:59:30.258Z,8.60
2022-12-25T04:02:15.940Z,8.50
2022-12-25T04:05:02.046Z,8.50
2022-12-25T04:07:47.694Z,8.50
2022-12-25T04:10:33.342Z,8.50
2022-12-25T04:13:19.270Z,8.50
2022-12-25T04:16:05.157Z,8.50
2022-12-25T04:18:51.438Z,8.50
2022-12-25T04:21:37.342Z,8.40
2022-12-25T04:24:23.225Z,8.40
2022-12-25T04:27:09.027Z,8.40
2022-12-25T04:29:58.297Z,8.40
2022-12-25T04:32:43.882Z,8.30
2022-12-25T04:35:29.840Z,8.30
2022-12-25T04:37:57.291Z,8.30
2022-12-25T04:40:25.685Z,8.30
2022-12-25T04:42:53.739Z,8.20
2022-12-25T04:45:21.028Z,8.20
2022-12-25T04:47:48.165Z,8.20
2022-12-25T04:50:15.308Z,8.10
2022-12-25T04:52:42.760Z,8.10
2022-12-25T04:55:11.763Z,8.10
2022-12-25T04:57:39.267Z,8.00
2022-12-25T05:00:07.602Z,8.00
2022-12-25T05:02:35.006Z,8.10
2022-12-25T05:05:02.331Z,8.00
2022-12-25T05:07:29.476Z,8.00
2022-12-25T05:09:56.610Z,8.00
2022-12-25T05:12:23.798Z,8.00
2022-12-25T05:14:50.928Z,7.90
2022-12-25T05:17:18.189Z,8.00
2022-12-25T05:19:45.383Z,7.90
2022-12-25T05:22:12.519Z,7.90
2022-12-25T05:24:39.638Z,7.80
2022-12-25T05:27:06.738Z,7.80
2022-12-25T05:29:33.986Z,7.80
2022-12-25T05:32:01.122Z,7.80
2022-12-25T05:34:28.303Z,7.80
2022-12-25T05:36:56.669Z,7.80
2022-12-25T05:39:24.679Z,7.80
2022-12-25T05:41:51.801Z,7.70
2022-12-25T05:44:19.115Z,7.70
2022-12-25T05:46:46.267Z,7.80
2022-12-25T05:49:16.273Z,7.70
2022-12-25T05:51:43.585Z,7.70
2022-12-25T05:54:10.760Z,7.70
2022-12-25T05:56:38.653Z,7.60
2022-12-25T05:59:05.929Z,7.60
2022-12-25T06:01:33.241Z,7.60
2022-12-25T06:04:00.578Z,7.60
2022-12-25T06:06:27.853Z,7.60
2022-12-25T06:08:55.755Z,7.50
2022-12-25T06:11:23.072Z,7.60
2022-12-25T06:13:52.226Z,7.50
2022-12-25T06:16:20.251Z,7.50
2022-12-25T06:18:52.152Z,7.40
2022-12-25T06:21:19.418Z,7.40
2022-12-25T06:23:46.814Z,7.40
2022-12-25T06:26:18.365Z,7.40
2022-12-25T06:28:46.332Z,7.40
2022-12-25T06:31:17.204Z,7.40
2022-12-25T06:33:45.215Z,7.30
2022-12-25T06:36:20.897Z,7.30
2022-12-25T06:38:48.459Z,7.30
2022-12-25T06:41:22.349Z,7.30
2022-12-25T06:43:52.514Z,7.30
2022-12-25T06:46:21.517Z,7.30
2022-12-25T06:48:51.714Z,7.30
2022-12-25T06:51:21.890Z,7.30
2022-12-25T06:53:51.355Z,7.20
2022-12-25T06:56:24.050Z,7.30
2022-12-25T06:58:55.531Z,7.30
2022-12-25T07:01:44.683Z,7.30
2022-12-25T07:04:16.927Z,7.30
2022-12-25T07:06:44.041Z,7.20
2022-12-25T07:09:11.200Z,7.20
2022-12-25T07:11:38.635Z,7.20
2022-12-25T07:14:05.750Z,7.30
2022-12-25T07:16:32.878Z,7.30
2022-12-25T07:19:01.307Z,7.30
2022-12-25T07:21:28.857Z,7.30
2022-12-25T07:23:56.130Z,7.30
2022-12-25T07:26:23.244Z,7.30
2022-12-25T07:28:50.393Z,7.40
2022-12-25T07:31:18.764Z,7.40
2022-12-25T07:33:46.004Z,7.50
2022-12-25T07:36:14.656Z,7.50
2022-12-25T07:38:42.875Z,7.50
2022-12-25T07:41:12.896Z,7.50
2022-12-25T07:43:40.392Z,7.60
2022-12-25T07:46:08.548Z,7.60
2022-12-25T07:48:36.135Z,7.60
2022-12-25T07:51:10.755Z,7.50
2022-12-25T07:53:38.156Z,7.60
2022-12-25T07:56:13.788Z,7.60
2022-12-25T07:58:41.879Z,7.50
2022-12-25T08:01:21.343Z,7.50
2022-12-25T08:04:01.183Z,7.50
2022-12-25T08:06:34.654Z,7.50
2022-12-25T08:09:13.120Z,7.50
2022-12-25T08:11:44.832Z,7.50
2022-12-25T08:14:12.131Z,7.50
2022-12-25T08:16:42.646Z,7.50
2022-12-25T08:19:10.284Z,7.50
2022-12-25T08:21:38.621Z,7.60
2022-12-25T08:24:06.138Z,7.50
2022-12-25T08:26:33.235Z,7.50
2022-12-25T08:29:00.573Z,7.40
2022-12-25T08:31:29.734Z,7.40
2022-12-25T08:33:59.705Z,7.40
2022-12-25T08:36:27.573Z,7.40
2022-12-25T08:39:02.097Z,7.50
2022-12-25T08:41:30.379Z,7.50
2022-12-25T08:43:57.699Z,7.60
2022-12-25T08:46:25.095Z,7.60
2022-12-25T08:48:52.493Z,7.70
2022-12-25T08:51:22.700Z,7.80
2022-12-25T08:53:52.732Z,7.80
2022-12-25T08:56:20.458Z,7.80
2022-12-25T08:58:47.850Z,7.90
2022-12-25T09:01:15.331Z,7.90
2022-12-25T09:03:43.565Z,7.90
2022-12-25T09:06:14.589Z,8.00
2022-12-25T09:08:48.129Z,8.00
2022-12-25T09:11:17.824Z,8.00
2022-12-25T09:13:45.019Z,8.00
2022-12-25T09:16:16.851Z,8.00
2022-12-25T09:18:44.074Z,8.10
2022-12-25T09:21:13.831Z,8.10
2022-12-25T09:23:41.344Z,8.20
2022-12-25T09:26:13.262Z,8.30
2022-12-25T09:28:45.179Z,8.30
2022-12-25T09:31:16.000Z,8.40
2022-12-25T09:33:43.340Z,8.50
2022-12-25T09:36:11.718Z,8.60
2022-12-25T09:38:39.254Z,8.70
2022-12-25T09:41:14.282Z,8.70
2022-12-25T09:43:59.729Z,8.80
2022-12-25T09:46:37.057Z,8.90
2022-12-25T09:49:44.963Z,9.00
2022-12-25T09:52:54.393Z,9.10
2022-12-25T09:55:28.623Z,9.30
2022-12-25T09:58:02.327Z,9.40
2022-12-25T10:00:36.520Z,9.50
2022-12-25T10:03:18.541Z,9.60
2022-12-25T10:06:10.951Z,9.70
2022-12-25T10:08:56.530Z,9.70
2022-12-25T10:11:45.056Z,9.70
2022-12-25T10:14:41.307Z,9.80
2022-12-25T10:17:47.793Z,9.80
2022-12-25T10:20:26.416Z,9.90
2022-12-25T10:22:59.005Z,10.00
2022-12-25T10:25:26.862Z,10.00
2022-12-25T10:28:14.637Z,10.00
2022-12-25T10:30:45.058Z,10.10
2022-12-25T10:33:17.111Z,10.00
2022-12-25T10:35:48.179Z,10.10
2022-12-25T10:38:19.006Z,10.10
2022-12-25T10:41:10.304Z,10.10
2022-12-25T10:43:50.061Z,10.20
2022-12-25T10:46:18.585Z,10.30
2022-12-25T10:49:02.896Z,10.30
2022-12-25T10:51:39.224Z,10.40
2022-12-25T10:54:35.177Z,10.60
2022-12-25T10:57:08.626Z,10.70
2022-12-25T10:59:56.177Z,10.90
2022-12-25T11:02:39.345Z,11.20
2022-12-25T11:05:12.935Z,11.50
2022-12-25T11:07:56.205Z,11.60
2022-12-25T11:10:45.026Z,11.70
2022-12-25T11:13:28.115Z,11.80
2022-12-25T11:16:32.352Z,11.90
2022-12-25T11:19:00.382Z,11.90
2022-12-25T11:21:34.736Z,12.00
2022-12-25T11:24:17.704Z,12.10
2022-12-25T11:27:06.477Z,12.10
2022-12-25T11:29:50.461Z,12.20
2022-12-25T11:32:37.926Z,12.20
2022-12-25T11:35:18.045Z,12.40
2022-12-25T11:37:51.574Z,12.50
2022-12-25T11:40:49.517Z,12.60
2022-12-25T11:43:33.969Z,12.60
2022-12-25T11:46:24.146Z,12.70
2022-12-25T11:48:57.538Z,12.80
2022-12-25T11:51:32.104Z,13.00
2022-12-25T11:54:18.802Z,13.20
2022-12-25T11:56:46.240Z,13.30
2022-12-25T11:59:26.087Z,13.40
2022-12-25T12:02:22.844Z,13.50
2022-12-25T12:05:01.622Z,13.60
2022-12-25T12:07:32.313Z,13.70
2022-12-25T12:10:25.608Z,13.80
2022-12-25T12:13:21.409Z,13.80
2022-12-25T12:15:50.638Z,13.80
2022-12-25T12:18:30.198Z,13.90
2022-12-25T12:21:07.245Z,13.90
2022-12-25T12:24:11.055Z,14.00
2022-12-25T12:26:42.561Z,14.10
2022-12-25T12:29:28.890Z,14.20
2022-12-25T12:31:59.768Z,14.40
2022-12-25T12:34:30.253Z,14.40
2022-12-25T12:37:06.485Z,14.50
2022-12-25T12:39:40.700Z,14.50
2022-12-25T12:42:19.065Z,14.60
2022-12-25T12:44:49.161Z,14.50
2022-12-25T12:47:38.950Z,14.60
2022-12-25T12:50:08.006Z,14.60
2022-12-25T12:52:38.772Z,14.50
2022-12-25T12:55:13.139Z,14.50
2022-12-25T12:57:41.587Z,14.50
2022-12-25T13:00:16.080Z,14.60
2022-12-25T13:03:10.935Z,14.60
2022-12-25T13:05:46.219Z,14.70
2022-12-25T13:08:35.411Z,14.70
2022-12-25T13:11:28.245Z,14.70
2022-12-25T13:14:00.767Z,14.70
2022-12-25T13:16:52.991Z,14.70
2022-12-25T13:19:25.878Z,14.70
2022-12-25T13:22:02.813Z,14.60
2022-12-25T13:24:34.599Z,14.60
2022-12-25T13:27:26.801Z,14.40
2022-12-25T13:29:54.056Z,14.20
2022-12-25T13:32:32.415Z,14.00
2022-12-25T13:35:00.556Z,13.90
2022-12-25T13:37:31.312Z,13.90
2022-12-25T13:40:01.824Z,13.90
2022-12-25T13:42:33.000Z,13.80
2022-12-25T13:45:06.628Z,13.80
2022-12-25T13:47:40.178Z,13.70
2022-12-25T13:50:22.235Z,13.60
2022-12-25T13:52:49.604Z,13.50
2022-12-25T13:55:29.283Z,13.60
2022-12-25T13:58:03.273Z,13.50
2022-12-25T14:00:42.485Z,13.40
2022-12-25T14:03:22.344Z,13.20
2022-12-25T14:06:02.605Z,13.00
2022-12-25T14:08:32.870Z,12.80
2022-12-25T14:11:04.651Z,12.70
2022-12-25T14:13:37.963Z,12.40
2022-12-25T14:16:06.361Z,12.30
2022-12-25T14:18:34.312Z,12.10
2022-12-25T14:21:02.351Z,12.00
2022-12-25T14:23:44.422Z,11.90
2022-12-25T14:26:24.403Z,11.80
2022-12-25T14:29:21.378Z,11.70
2022-12-25T14:31:51.031Z,11.50
2022-12-25T14:34:23.165Z,11.40
2022-12-25T14:36:54.190Z,11.30
2022-12-25T14:39:29.680Z,11.30
2022-12-25T14:42:02.472Z,11.20
2022-12-25T14:44:38.794Z,11.10
2022-12-25T14:47:14.919Z,11.00
2022-12-25T14:49:42.867Z,10.90
2022-12-25T14:52:25.678Z,10.80
2022-12-25T14:55:28.154Z,10.60
2022-12-25T14:58:05.459Z,10.60
2022-12-25T15:00:37.399Z,10.50
2022-12-25T15:03:26.367Z,10.40
2022-12-25T15:06:21.806Z,10.30
2022-12-25T15:09:01.171Z,10.20
2022-12-25T15:11:29.005Z,10.10
2022-12-25T15:13:56.695Z,9.90
2022-12-25T15:16:28.465Z,9.90
2022-12-25T15:18:56.125Z,9.80
2022-12-25T15:21:31.217Z,9.70
2022-12-25T15:24:00.317Z,9.60
2022-12-25T15:26:30.216Z,9.50
2022-12-25T15:28:58.402Z,9.40
2022-12-25T15:31:32.182Z,9.40
2022-12-25T15:34:03.879Z,9.30
2022-12-25T15:36:31.722Z,9.20
2022-12-25T15:38:58.832Z,9.10
2022-12-25T15:41:46.652Z,9.00
2022-12-25T15:44:15.343Z,8.90
2022-12-25T15:46:42.939Z,8.90
2022-12-25T15:49:14.427Z,8.70
2022-12-25T15:51:43.030Z,8.70
2022-12-25T15:54:11.107Z,8.70
2022-12-25T15:56:45.108Z,8.60
2022-12-25T15:59:14.565Z,8.60
2022-12-25T16:01:53.069Z,8.50
2022-12-25T16:04:21.396Z,8.50
2022-12-25T16:06:49.373Z,8.50
2022-12-25T16:09:18.151Z,8.50
2022-12-25T16:11:45.253Z,8.50
2022-12-25T16:14:12.803Z,8.40
2022-12-25T16:16:41.013Z,8.40
2022-12-25T16:19:08.477Z,8.40
2022-12-25T16:21:46.889Z,8.40
2022-12-25T16:24:15.325Z,8.40
2022-12-25T16:26:43.558Z,8.30
2022-12-25T16:29:11.124Z,8.30
2022-12-25T16:31:39.298Z,8.30
2022-12-25T16:34:08.000Z,8.20
2022-12-25T16:36:36.075Z,8.20
2022-12-25T16:39:04.573Z,8.20
2022-12-25T16:41:31.878Z,8.10
2022-12-25T16:43:58.967Z,8.10
2022-12-25T16:46:26.137Z,8.10
2022-12-25T16:48:53.451Z,8.10
2022-12-25T16:51:21.741Z,8.10
2022-12-25T16:53:48.974Z,8.10
2022-12-25T16:56:20.743Z,8.10
2022-12-25T16:58:48.231Z,8.10
2022-12-25T17:01:19.715Z,8.10
2022-12-25T17:03:47.888Z,8.10
2022-12-25T17:06:28.257Z,8.10
2022-12-25T17:08:59.137Z,8.10
2022-12-25T17:11:29.932Z,8.00
2022-12-25T17:14:04.511Z,8.00
2022-12-25T17:16:35.766Z,8.00
2022-12-25T17:19:09.762Z,7.90
2022-12-25T17:21:38.396Z,7.90
2022-12-25T17:24:07.093Z,7.90
2022-12-25T17:26:34.347Z,7.90
2022-12-25T17:29:02.274Z,7.90
2022-12-25T17:31:29.821Z,7.90
2022-12-25T17:33:57.728Z,7.90
2022-12-25T17:36:25.535Z,7.80
2022-12-25T17:38:52.673Z,7.80
2022-12-25T17:41:20.788Z,7.70
2022-12-25T17:43:48.693Z,7.70
2022-12-25T17:46:28.646Z,7.70
2022-12-25T17:48:58.137Z,7.70
2022-12-25T17:51:26.755Z,7.60
2022-12-25T17:53:58.312Z,7.60
2022-12-25T17:56:29.120Z,7.60
2022-12-25T17:59:00.069Z,7.50
2022-12-25T18:01:29.954Z,7.50
2022-12-25T18:04:00.025Z,7.40
2022-12-25T18:06:28.377Z,7.40
2022-12-25T18:08:58.100Z,7.30
2022-12-25T18:11:32.712Z,7.30
2022-12-25T18:14:03.453Z,7.20
2022-12-25T18:16:33.906Z,7.20
2022-12-25T18:19:02.075Z,7.10
2022-12-25T18:21:30.106Z,7.10
2022-12-25T18:23:57.712Z,7.00
2022-12-25T18:26:28.939Z,7.00
2022-12-25T18:28:57.572Z,6.90
2022-12-25T18:31:27.129Z,6.90
2022-12-25T18:33:54.605Z,6.80
2022-12-25T18:36:25.912Z,6.80
2022-12-25T18:38:55.029Z,6.80
2022-12-25T18:41:25.527Z,6.80
2022-12-25T18:43:55.658Z,6.70
2022-12-25T18:46:25.971Z,6.70
2022-12-25T18:48:55.964Z,6.70
2022-12-25T18:51:23.629Z,6.60
2022-12-25T18:54:09.688Z,6.60
2022-12-25T18:56:36.899Z,6.60
2022-12-25T18:59:04.250Z,6.50
2022-12-25T19:01:31.519Z,6.50
2022-12-25T19:04:04.447Z,6.40
2022-12-25T19:06:33.482Z,6.40
2022-12-25T19:09:00.873Z,6.30
2022-12-25T19:11:28.336Z,6.30
2022-12-25T19:13:56.268Z,6.30
2022-12-25T19:16:23.930Z,6.30
2022-12-25T19:18:51.379Z,6.20
2022-12-25T19:21:18.716Z,6.20
2022-12-25T19:23:46.184Z,6.30
2022-12-25T19:26:13.535Z,6.30
2022-12-25T19:28:41.512Z,6.30
2022-12-25T19:31:10.086Z,6.30
2022-12-25T19:33:39.916Z,6.30
2022-12-25T19:36:14.536Z,6.30
2022-12-25T19:38:42.665Z,6.20
2022-12-25T19:41:16.055Z,6.20
2022-12-25T19:43:45.740Z,6.20
2022-12-25T19:46:35.566Z,6.10
2022-12-25T19:49:07.955Z,6.10
2022-12-25T19:51:43.623Z,6.10
2022-12-25T19:54:20.760Z,6.10
2022-12-25T19:56:49.190Z,6.00
2022-12-25T19:59:16.385Z,6.00
2022-12-25T20:01:45.416Z,6.00
2022-12-25T20:04:12.913Z,6.00
2022-12-25T20:06:40.786Z,5.90
2022-12-25T20:09:20.599Z,5.90
2022-12-25T20:11:48.644Z,5.90
2022-12-25T20:14:16.998Z,6.00
2022-12-25T20:16:44.546Z,6.00
2022-12-25T20:19:13.421Z,6.00
2022-12-25T20:21:40.888Z,6.00
2022-12-25T20:24:10.221Z,6.00
2022-12-25T20:26:39.371Z,6.00
2022-12-25T20:29:07.166Z,6.00
2022-12-25T20:31:35.876Z,6.00
2022-12-25T20:34:10.345Z,6.00
2022-12-25T20:36:38.373Z,6.00
2022-12-25T20:39:10.150Z,6.00
2022-12-25T20:41:39.658Z,6.00
2022-12-25T20:44:10.472Z,6.00
2022-12-25T20:46:38.013Z,6.00
2022-12-25T20:49:05.611Z,6.00
2022-12-25T20:51:32.887Z,6.00
2022-12-25T20:54:01.119Z,6.00
2022-12-25T20:56:37.632Z,6.00
2022-12-25T20:59:05.075Z,6.00
2022-12-25T21:01:32.504Z,6.00
2022-12-25T21:04:00.127Z,6.00
2022-12-25T21:06:27.549Z,6.00
2022-12-25T21:08:55.664Z,6.00
2022-12-25T21:11:23.198Z,6.00
2022-12-25T21:13:53.538Z,6.00
2022-12-25T21:16:22.627Z,6.00
2022-12-25T21:18:52.409Z,6.00
2022-12-25T21:21:22.873Z,5.90
2022-12-25T21:23:50.548Z,5.90
2022-12-25T21:26:22.813Z,5.90
2022-12-25T21:28:53.160Z,5.80
2022-12-25T21:31:21.530Z,5.80
2022-12-25T21:33:51.981Z,5.80
2022-12-25T21:36:32.070Z,5.80
2022-12-25T21:39:08.136Z,5.80
2022-12-25T21:41:37.191Z,5.80
2022-12-25T21:44:06.324Z,5.70
2022-12-25T21:46:36.731Z,5.70
2022-12-25T21:49:04.056Z,5.60
2022-12-25T21:51:52.909Z,5.60
2022-12-25T21:54:22.744Z,5.60
2022-12-25T21:56:50.828Z,5.60
2022-12-25T21:59:21.599Z,5.50
2022-12-25T22:01:50.708Z,5.50
2022-12-25T22:04:21.319Z,5.40
2022-12-25T22:07:07.704Z,5.40
2022-12-25T22:09:35.215Z,5.40
2022-12-25T22:12:21.452Z,5.40
2022-12-25T22:14:54.615Z,5.30
2022-12-25T22:17:47.349Z,5.30
2022-12-25T22:20:19.700Z,5.30
2022-12-25T22:22:46.996Z,5.30
2022-12-25T22:25:15.227Z,5.30
2022-12-25T22:27:44.323Z,5.30
2022-12-25T22:30:24.259Z,5.30
2022-12-25T22:32:52.364Z,5.30
2022-12-25T22:35:20.161Z,5.20
2022-12-25T22:37:48.342Z,5.20
2022-12-25T22:40:20.048Z,5.20
2022-12-25T22:42:47.309Z,5.20
2022-12-25T22:45:14.867Z,5.30
2022-12-25T22:47:42.276Z,5.30
2022-12-25T22:50:11.690Z,5.30
2022-12-25T22:52:39.082Z,5.30
2022-12-25T22:55:08.057Z,5.30
2022-12-25T22:57:35.897Z,5.30
2022-12-25T23:00:05.212Z,5.30
2022-12-25T23:02:32.656Z,5.30
2022-12-25T23:04:59.910Z,5.30
2022-12-25T23:07:27.006Z,5.30
2022-12-25T23:09:54.317Z,5.30
2022-12-25T23:12:48.660Z,5.30
2022-12-25T23:15:15.966Z,5.30
2022-12-25T23:18:01.806Z,5.30
2022-12-25T23:20:47.441Z,5.30
2022-12-25T23:23:36.981Z,5.30
2022-12-25T23:26:07.831Z,5.30
2022-12-25T23:29:00.223Z,5.30
2022-12-25T23:31:38.073Z,5.40
2022-12-25T23:34:06.340Z,5.40
2022-12-25T23:36:34.404Z,5.50
2022-12-25T23:39:08.948Z,5.50
2022-12-25T23:41:41.425Z,5.50
2022-12-25T23:44:11.093Z,5.50
2022-12-25T23:46:40.074Z,5.60
2022-12-25T23:49:08.883Z,5.60
2022-12-25T23:51:38.018Z,5.60
2022-12-25T23:54:08.183Z,5.70
2022-12-25T23:56:36.042Z,5.70
2022-12-25T23:59:05.110Z,5.70
